Time;durP1;ratioP1;P1;durP2;ratioP2;P2;SDS_P1;SDS_P2;PMS_P1;PMS_P2;Temp;Humidity;BMP_temperature;BMP_pressure;BME280_temperature;BME280_humidity;BME280_pressure;Samples;Min_cycle;Max_cycle;Signal;HPM_P1;HPM_P2
2021/05/15 00:01:45;;;;;;;14.27;11.80;;;9.50;99.90;;;;;;4933022;29;20434;-64
2021/05/15 00:04:10;;;;;;;14.45;11.30;;;9.50;99.90;;;;;;4927410;29;20498;-64
2021/05/15 00:06:36;;;;;;;16.70;11.27;;;9.50;99.90;;;;;;4927433;28;20462;-64
2021/05/15 00:09:04;;;;;;;20.80;11.07;;;9.50;99.90;;;;;;4932149;29;20035;-64
2021/05/15 00:11:29;;;;;;;16.48;12.10;;;9.50;99.90;;;;;;4928110;29;20059;-64
2021/05/15 00:13:55;;;;;;;15.60;13.77;;;9.50;99.90;;;;;;4933173;29;20043;-64
2021/05/15 00:16:21;;;;;;;13.00;11.57;;;9.50;99.90;;;;;;4926588;29;20043;-64
2021/05/15 00:18:47;;;;;;;16.17;13.55;;;9.50;99.90;;;;;;4930803;29;20500;-64
2021/05/15 00:21:13;;;;;;;14.43;12.15;;;9.50;99.90;;;;;;4926760;29;20074;-63
2021/05/15 00:23:39;;;;;;;17.80;12.25;;;9.40;99.90;;;;;;4931055;29;20088;-63
2021/05/15 00:26:05;;;;;;;15.77;13.80;;;9.50;99.90;;;;;;4928146;28;20115;-64
2021/05/15 00:28:31;;;;;;;16.27;12.15;;;9.40;99.90;;;;;;4928775;29;20047;-64
2021/05/15 00:30:58;;;;;;;15.32;13.18;;;9.40;99.90;;;;;;4928445;28;20523;-63
2021/05/15 00:33:25;;;;;;;12.52;10.23;;;9.40;99.90;;;;;;4925899;29;20661;-64
2021/05/15 00:35:50;;;;;;;14.40;11.20;;;9.40;99.90;;;;;;4928469;29;20048;-64
2021/05/15 00:38:16;;;;;;;11.25;10.02;;;9.40;99.90;;;;;;4927281;28;20043;-64
2021/05/15 00:40:42;;;;;;;11.07;9.50;;;9.40;99.90;;;;;;4932850;29;20179;-64
2021/05/15 00:43:09;;;;;;;12.85;9.32;;;9.50;99.90;;;;;;4933198;29;20040;-64
2021/05/15 00:45:36;;;;;;;12.75;10.90;;;9.50;99.90;;;;;;4926428;29;20028;-64
2021/05/15 00:48:03;;;;;;;11.98;9.32;;;9.50;99.90;;;;;;4926483;29;20558;-64
2021/05/15 00:50:32;;;;;;;10.65;8.98;;;9.50;99.90;;;;;;4925579;29;20557;-64
2021/05/15 00:52:58;;;;;;;11.32;9.20;;;9.50;99.90;;;;;;4926230;29;20034;-63
2021/05/15 00:55:24;;;;;;;9.07;8.02;;;9.40;99.90;;;;;;4929076;29;20036;-64
2021/05/15 00:57:54;;;;;;;10.27;9.25;;;9.50;99.90;;;;;;4926498;29;20039;-64
2021/05/15 01:00:21;;;;;;;11.38;10.00;;;9.50;99.90;;;;;;4923552;28;20176;-64
2021/05/15 01:02:47;;;;;;;11.00;9.02;;;9.50;99.90;;;;;;4921708;29;20482;-64
2021/05/15 01:05:13;;;;;;;10.80;9.75;;;9.50;99.90;;;;;;4928305;29;20046;-64
2021/05/15 01:07:42;;;;;;;10.98;9.75;;;9.50;99.90;;;;;;4923105;28;20032;-63
2021/05/15 01:10:08;;;;;;;9.40;8.40;;;9.40;99.90;;;;;;4927623;29;20039;-63
2021/05/15 01:12:48;;;;;;;12.48;9.75;;;9.50;99.90;;;;;;4923925;29;20043;-64
2021/05/15 01:15:15;;;;;;;12.82;9.63;;;9.50;99.90;;;;;;4914278;29;20047;-64
2021/05/15 01:17:51;;;;;;;10.95;9.27;;;9.50;99.90;;;;;;4927323;29;20474;-63
2021/05/15 01:20:17;;;;;;;14.05;10.25;;;9.40;99.90;;;;;;4923854;28;20110;-64
2021/05/15 01:22:43;;;;;;;10.40;9.40;;;9.40;99.90;;;;;;4924554;29;20103;-64
2021/05/15 01:25:10;;;;;;;11.13;9.90;;;9.40;99.90;;;;;;4934272;28;20523;-64
2021/05/15 01:27:36;;;;;;;11.10;9.90;;;9.40;99.90;;;;;;4925588;29;20070;-64
2021/05/15 01:30:04;;;;;;;10.30;8.63;;;9.40;99.90;;;;;;4924151;29;20410;-64
2021/05/15 01:32:30;;;;;;;12.68;11.30;;;9.40;99.90;;;;;;4925221;29;20534;-64
2021/05/15 01:34:55;;;;;;;10.15;8.60;;;9.40;99.90;;;;;;4924109;29;20143;-64
2021/05/15 01:37:21;;;;;;;11.52;9.88;;;9.40;99.90;;;;;;4929438;28;20067;-64
2021/05/15 01:39:47;;;;;;;23.48;10.57;;;9.40;99.90;;;;;;4926218;29;20031;-64
2021/05/15 01:42:13;;;;;;;10.45;8.18;;;9.40;99.90;;;;;;4926883;29;20076;-64
2021/05/15 01:44:38;;;;;;;9.65;8.65;;;9.40;99.90;;;;;;4927062;29;20031;-64
2021/05/15 01:47:04;;;;;;;9.27;8.30;;;9.50;99.90;;;;;;4924438;29;20361;-64
2021/05/15 01:49:30;;;;;;;11.18;9.77;;;9.40;99.90;;;;;;4913036;29;20055;-64
2021/05/15 01:51:56;;;;;;;8.48;7.68;;;9.50;99.90;;;;;;4929013;29;20039;-63
2021/05/15 01:54:22;;;;;;;9.43;8.60;;;9.40;99.90;;;;;;4924840;28;20050;-64
2021/05/15 01:56:47;;;;;;;10.98;9.90;;;9.40;99.90;;;;;;4930068;29;20044;-64
2021/05/15 01:59:13;;;;;;;9.20;8.20;;;9.40;99.90;;;;;;4924672;29;20047;-64
2021/05/15 02:01:39;;;;;;;10.80;8.82;;;9.40;99.90;;;;;;4925807;29;20043;-64
2021/05/15 02:04:04;;;;;;;9.93;8.93;;;9.40;99.90;;;;;;4930643;29;20032;-64
2021/05/15 02:06:30;;;;;;;11.48;8.57;;;9.40;99.90;;;;;;4921004;29;20513;-64
2021/05/15 02:08:56;;;;;;;9.07;8.15;;;9.40;99.90;;;;;;4929875;29;20081;-64
2021/05/15 02:11:22;;;;;;;9.38;8.48;;;9.40;99.90;;;;;;4925512;29;20178;-64
2021/05/15 02:13:49;;;;;;;9.18;7.85;;;9.40;99.90;;;;;;4926986;28;20051;-64
2021/05/15 02:16:17;;;;;;;8.90;8.05;;;9.40;99.90;;;;;;4927806;29;20039;-64
2021/05/15 02:18:43;;;;;;;9.55;8.30;;;9.40;99.90;;;;;;4923612;29;20078;-64
2021/05/15 02:21:09;;;;;;;10.93;9.35;;;9.40;99.90;;;;;;4928222;28;20059;-64
2021/05/15 02:23:35;;;;;;;9.88;8.88;;;9.40;99.90;;;;;;4927026;28;20048;-64
2021/05/15 02:26:02;;;;;;;10.55;9.50;;;9.40;99.90;;;;;;4923861;29;20081;-64
2021/05/15 02:28:28;;;;;;;12.73;8.85;;;9.40;99.90;;;;;;4929333;28;20048;-64
2021/05/15 02:30:53;;;;;;;11.82;9.98;;;9.30;99.90;;;;;;4925136;29;20039;-64
2021/05/15 02:33:19;;;;;;;10.23;8.55;;;9.30;99.90;;;;;;4925291;29;20044;-64
2021/05/15 02:35:47;;;;;;;11.13;9.65;;;9.20;99.90;;;;;;4926325;29;20042;-64
2021/05/15 02:38:14;;;;;;;11.40;9.77;;;9.30;99.90;;;;;;4926877;29;20051;-64
2021/05/15 02:40:41;;;;;;;11.93;10.73;;;9.30;99.90;;;;;;4926159;29;20036;-64
2021/05/15 02:43:07;;;;;;;11.50;10.30;;;9.20;99.90;;;;;;4929572;29;20135;-64
2021/05/15 02:45:33;;;;;;;11.68;8.82;;;9.20;99.90;;;;;;4923129;29;20035;-64
2021/05/15 02:47:59;;;;;;;10.18;8.82;;;9.10;99.90;;;;;;4926909;29;20059;-64
2021/05/15 02:50:25;;;;;;;9.95;8.95;;;9.10;99.90;;;;;;4922883;28;20047;-64
2021/05/15 02:52:52;;;;;;;11.77;9.65;;;9.10;99.90;;;;;;4924321;29;20047;-64
2021/05/15 02:55:20;;;;;;;9.20;8.30;;;9.20;99.90;;;;;;4928691;29;20102;-64
2021/05/15 02:57:47;;;;;;;13.15;9.27;;;9.20;99.90;;;;;;4924800;29;20654;-64
2021/05/15 03:00:19;;;;;;;10.07;9.18;;;9.20;99.90;;;;;;4925479;29;20474;-64
2021/05/15 03:02:45;;;;;;;9.48;8.05;;;9.20;99.90;;;;;;4925583;29;20038;-64
2021/05/15 03:05:14;;;;;;;9.80;8.80;;;9.20;99.90;;;;;;4923652;29;20040;-64
2021/05/15 03:07:40;;;;;;;8.95;8.05;;;9.30;99.90;;;;;;4922710;29;20067;-64
2021/05/15 03:10:07;;;;;;;9.50;8.50;;;9.30;99.90;;;;;;4927184;29;20063;-64
2021/05/15 03:12:33;;;;;;;9.02;8.18;;;9.30;99.90;;;;;;4921242;29;20075;-64
2021/05/15 03:14:59;;;;;;;11.45;10.23;;;9.30;99.90;;;;;;4929231;29;20048;-64
2021/05/15 03:17:25;;;;;;;11.73;10.32;;;9.30;99.90;;;;;;4926555;29;20038;-64
2021/05/15 03:19:53;;;;;;;11.65;10.32;;;9.20;99.90;;;;;;4922751;29;21358;-63
2021/05/15 03:22:21;;;;;;;11.43;9.27;;;9.20;99.90;;;;;;4927524;29;20055;-64
2021/05/15 03:24:47;;;;;;;14.77;10.05;;;9.10;99.90;;;;;;4923972;29;20039;-64
2021/05/15 03:27:13;;;;;;;9.95;8.40;;;9.10;99.90;;;;;;4925818;29;20542;-64
2021/05/15 03:29:38;;;;;;;9.35;8.45;;;9.20;99.90;;;;;;4926702;29;20047;-64
2021/05/15 03:32:05;;;;;;;8.65;7.65;;;9.20;99.90;;;;;;4921656;29;20048;-64
2021/05/15 03:34:30;;;;;;;11.73;9.75;;;9.20;99.90;;;;;;4924299;29;20035;-64
2021/05/15 03:36:56;;;;;;;12.43;10.55;;;9.20;99.90;;;;;;4928244;28;20106;-64
2021/05/15 03:39:22;;;;;;;13.20;9.20;;;9.10;99.90;;;;;;4924407;29;20048;-64
2021/05/15 03:41:48;;;;;;;10.25;8.98;;;9.10;99.90;;;;;;4927227;29;20039;-64
2021/05/15 03:44:14;;;;;;;12.07;10.57;;;9.10;99.90;;;;;;4924972;29;20043;-64
2021/05/15 03:46:41;;;;;;;11.85;10.52;;;9.20;99.90;;;;;;4930745;29;20074;-64
2021/05/15 03:49:07;;;;;;;12.20;9.93;;;9.20;99.90;;;;;;4931808;28;20107;-64
2021/05/15 03:51:33;;;;;;;14.90;10.23;;;9.20;99.90;;;;;;4924603;29;20044;-64
2021/05/15 03:53:59;;;;;;;11.25;10.00;;;9.30;99.90;;;;;;4929155;29;20079;-64
2021/05/15 03:56:25;;;;;;;15.27;9.75;;;9.30;99.90;;;;;;4926699;28;20043;-64
2021/05/15 03:58:52;;;;;;;11.90;9.90;;;9.40;99.90;;;;;;4927846;29;20043;-64
2021/05/15 04:01:18;;;;;;;11.70;9.50;;;9.40;99.90;;;;;;4928293;29;20055;-64
2021/05/15 04:03:44;;;;;;;13.00;10.77;;;9.40;99.90;;;;;;4928425;29;20035;-63
2021/05/15 04:06:09;;;;;;;9.77;8.77;;;9.40;99.90;;;;;;4930402;29;20032;-64
2021/05/15 04:08:35;;;;;;;11.73;10.02;;;9.40;99.90;;;;;;4931084;28;20054;-64
2021/05/15 04:11:01;;;;;;;11.85;9.25;;;9.40;99.90;;;;;;4925798;29;20043;-64
2021/05/15 04:18:21;;;;;;;11.77;8.93;;;9.40;99.90;;;;;;4926098;29;20599;-64
2021/05/15 04:20:47;;;;;;;11.18;9.45;;;9.50;99.90;;;;;;4928539;29;20063;-64
2021/05/15 04:23:13;;;;;;;10.25;8.52;;;9.40;99.90;;;;;;4925198;29;20055;-64
2021/05/15 04:25:39;;;;;;;11.50;8.98;;;9.40;99.90;;;;;;4931512;28;20126;-64
2021/05/15 04:28:06;;;;;;;10.77;8.50;;;9.50;99.90;;;;;;4933141;28;20510;-64
2021/05/15 04:30:33;;;;;;;9.70;8.23;;;9.40;99.90;;;;;;4925531;29;20495;-64
2021/05/15 04:33:00;;;;;;;11.85;9.27;;;9.50;99.90;;;;;;4930309;28;20467;-64
2021/05/15 04:35:27;;;;;;;10.48;8.73;;;9.50;99.90;;;;;;4926648;29;20063;-64
2021/05/15 04:37:53;;;;;;;10.40;8.93;;;9.50;99.90;;;;;;4925950;29;20047;-64
2021/05/15 04:40:19;;;;;;;10.57;8.50;;;9.50;99.90;;;;;;4931468;29;20091;-64
2021/05/15 04:42:45;;;;;;;12.25;9.73;;;9.60;99.90;;;;;;4925955;29;20697;-64
2021/05/15 04:45:13;;;;;;;12.75;10.35;;;9.70;99.90;;;;;;4929974;29;20071;-64
2021/05/15 04:47:39;;;;;;;8.93;7.60;;;9.70;99.90;;;;;;4929823;29;20039;-64
2021/05/15 04:50:08;;;;;;;7.05;6.35;;;9.80;99.90;;;;;;4932486;29;20071;-64
2021/05/15 04:52:33;;;;;;;8.25;6.20;;;9.90;99.90;;;;;;4927594;29;20130;-64
2021/05/15 04:54:59;;;;;;;9.45;7.78;;;9.90;99.90;;;;;;4928378;29;20122;-64
2021/05/15 04:57:25;;;;;;;9.32;7.65;;;9.90;99.90;;;;;;4927817;29;20114;-64
2021/05/15 04:59:51;;;;;;;11.93;9.60;;;10.00;99.90;;;;;;4931384;29;20047;-63
2021/05/15 05:02:16;;;;;;;13.20;9.13;;;10.00;99.90;;;;;;4926674;29;20043;-64
2021/05/15 05:04:42;;;;;;;11.13;8.45;;;10.00;99.90;;;;;;4934649;29;20043;-64
2021/05/15 05:07:08;;;;;;;10.35;8.07;;;10.00;99.90;;;;;;4932123;29;20039;-64
2021/05/15 05:09:34;;;;;;;10.80;9.10;;;10.10;99.90;;;;;;4931825;29;20043;-64
2021/05/15 05:12:00;;;;;;;8.25;6.85;;;10.10;99.90;;;;;;4933105;28;20043;-64
2021/05/15 05:14:26;;;;;;;10.38;8.85;;;10.00;99.90;;;;;;4925057;29;20054;-64
2021/05/15 05:16:55;;;;;;;11.13;8.32;;;10.00;99.90;;;;;;4926356;29;20335;-64
2021/05/15 05:19:25;;;;;;;8.82;7.93;;;10.10;99.90;;;;;;4928427;29;20048;-64
2021/05/15 05:21:52;;;;;;;9.65;7.25;;;10.10;99.90;;;;;;4922545;29;20056;-64
2021/05/15 05:24:19;;;;;;;9.50;7.63;;;10.10;99.90;;;;;;4930559;28;20031;-64
2021/05/15 05:26:45;;;;;;;7.90;6.55;;;10.10;99.90;;;;;;4931222;28;20063;-64
2021/05/15 05:29:11;;;;;;;11.45;7.32;;;10.20;99.90;;;;;;4927314;28;20046;-64
2021/05/15 05:31:39;;;;;;;8.15;6.75;;;10.20;99.90;;;;;;4928364;29;20028;-64
2021/05/15 05:34:05;;;;;;;7.93;6.95;;;10.10;99.90;;;;;;4928098;29;20103;-64
2021/05/15 05:36:32;;;;;;;7.00;6.30;;;10.20;99.90;;;;;;4931018;28;20036;-64
2021/05/15 05:38:58;;;;;;;6.70;5.50;;;10.20;99.90;;;;;;4929813;29;20047;-64
2021/05/15 05:41:24;;;;;;;7.15;5.72;;;10.30;99.90;;;;;;4926612;29;20078;-64
2021/05/15 05:43:54;;;;;;;8.40;6.82;;;10.30;99.90;;;;;;4925825;29;20058;-64
2021/05/15 05:46:20;;;;;;;6.95;6.32;;;10.40;99.90;;;;;;4929398;29;20551;-64
2021/05/15 05:48:46;;;;;;;7.45;6.35;;;10.40;99.90;;;;;;4926297;29;20130;-64
2021/05/15 05:51:12;;;;;;;7.70;6.50;;;10.40;99.90;;;;;;4926260;29;20038;-64
2021/05/15 05:53:38;;;;;;;8.90;7.55;;;10.50;99.90;;;;;;4928231;29;20039;-64
2021/05/15 05:56:05;;;;;;;8.32;7.00;;;10.60;99.90;;;;;;4927854;29;20091;-64
2021/05/15 05:58:30;;;;;;;7.13;6.03;;;10.70;99.90;;;;;;4926028;29;20046;-64
2021/05/15 06:00:56;;;;;;;7.75;6.78;;;10.70;99.90;;;;;;4927652;29;20044;-64
2021/05/15 06:03:22;;;;;;;6.95;6.25;;;10.70;99.90;;;;;;4923879;29;20050;-64
2021/05/15 06:05:48;;;;;;;8.32;6.78;;;10.80;99.90;;;;;;4926187;29;20035;-64
2021/05/15 06:08:14;;;;;;;7.07;5.93;;;10.80;99.90;;;;;;4926345;29;20050;-64
2021/05/15 06:10:40;;;;;;;6.82;6.15;;;10.90;99.90;;;;;;4930825;29;20069;-64
2021/05/15 06:13:07;;;;;;;6.45;5.78;;;11.00;99.90;;;;;;4932282;28;20040;-64
2021/05/15 06:15:34;;;;;;;9.73;6.05;;;10.90;99.90;;;;;;4929012;29;20059;-64
2021/05/15 06:17:59;;;;;;;8.50;6.28;;;11.00;99.90;;;;;;4932224;28;20138;-64
2021/05/15 06:20:26;;;;;;;7.45;6.20;;;11.10;99.90;;;;;;4879213;29;20087;-65
2021/05/15 06:23:06;;;;;;;;;;;11.10;99.90;;;;;;767733;28;10003230;-64
2021/05/15 06:25:31;;;;;;;6.57;5.93;;;11.10;99.90;;;;;;4924250;28;20065;-64
2021/05/15 06:27:58;;;;;;;7.45;6.32;;;11.10;99.90;;;;;;4928619;29;20039;-64
2021/05/15 06:30:24;;;;;;;6.35;5.57;;;11.10;99.90;;;;;;4927266;28;20067;-64
2021/05/15 06:32:50;;;;;;;5.15;4.65;;;11.10;99.90;;;;;;4944232;28;20031;-63
2021/05/15 06:35:16;;;;;;;5.82;5.22;;;11.30;99.90;;;;;;4924470;28;20039;-64
2021/05/15 06:37:42;;;;;;;5.30;4.80;;;11.30;99.90;;;;;;4925060;29;20111;-63
2021/05/15 06:40:09;;;;;;;7.32;6.60;;;11.30;99.90;;;;;;4929259;28;20039;-64
2021/05/15 06:42:36;;;;;;;5.85;5.25;;;11.50;99.90;;;;;;4923261;29;20049;-64
2021/05/15 06:45:04;;;;;;;6.70;6.07;;;11.40;99.90;;;;;;4931086;29;20074;-64
2021/05/15 06:47:30;;;;;;;6.03;5.45;;;11.60;99.90;;;;;;4925263;29;20110;-64
2021/05/15 06:49:56;;;;;;;6.15;5.35;;;11.80;99.90;;;;;;4924322;29;20040;-64
2021/05/15 06:52:22;;;;;;;5.57;4.82;;;11.80;99.90;;;;;;4925723;29;21534;-64
2021/05/15 06:54:47;;;;;;;4.90;4.47;;;11.90;99.90;;;;;;4923781;29;20036;-64
2021/05/15 06:57:13;;;;;;;5.88;5.28;;;11.90;99.90;;;;;;4923303;29;20031;-64
2021/05/15 06:59:39;;;;;;;5.32;4.82;;;12.10;99.90;;;;;;4930854;29;20039;-64
2021/05/15 07:02:05;;;;;;;5.00;4.50;;;12.20;99.90;;;;;;4924443;28;20401;-64
2021/05/15 07:04:31;;;;;;;6.45;4.85;;;12.20;99.90;;;;;;4923933;29;20039;-64
2021/05/15 07:06:56;;;;;;;5.43;4.93;;;12.30;99.90;;;;;;4927557;29;20032;-64
2021/05/15 07:09:22;;;;;;;6.40;5.25;;;12.30;99.90;;;;;;4922252;29;20538;-64
2021/05/15 07:11:49;;;;;;;8.10;6.30;;;12.50;99.90;;;;;;4930766;28;20474;-64
2021/05/15 07:14:17;;;;;;;5.43;4.93;;;12.50;99.90;;;;;;4931057;28;20054;-65
2021/05/15 07:16:43;;;;;;;6.43;5.70;;;12.50;99.90;;;;;;4926987;28;20046;-64
2021/05/15 07:19:09;;;;;;;6.25;5.53;;;12.60;99.90;;;;;;4925977;29;20043;-64
2021/05/15 07:21:35;;;;;;;7.57;5.20;;;12.60;99.90;;;;;;4945766;28;20051;-64
2021/05/15 07:24:01;;;;;;;6.35;5.75;;;12.70;99.90;;;;;;4924197;28;20043;-64
2021/05/15 07:26:27;;;;;;;5.72;5.20;;;12.70;99.90;;;;;;4929430;28;20672;-64
2021/05/15 07:28:53;;;;;;;5.65;5.05;;;12.80;99.90;;;;;;4923434;29;20042;-64
2021/05/15 07:31:19;;;;;;;4.88;4.38;;;12.70;99.90;;;;;;4926967;29;20037;-64
2021/05/15 07:33:45;;;;;;;4.60;4.20;;;12.80;99.90;;;;;;4926314;29;20032;-64
2021/05/15 07:36:11;;;;;;;6.50;4.80;;;12.90;99.90;;;;;;4922637;29;20091;-64
2021/05/15 07:38:37;;;;;;;6.80;6.20;;;12.80;99.90;;;;;;4923812;29;20608;-64
2021/05/15 07:41:04;;;;;;;5.32;4.82;;;12.70;99.90;;;;;;4924969;29;20040;-64
2021/05/15 07:43:30;;;;;;;6.88;6.22;;;12.80;99.90;;;;;;4922150;29;20557;-63
2021/05/15 07:45:58;;;;;;;9.10;8.30;;;12.80;99.90;;;;;;4925745;29;20123;-64
2021/05/15 07:48:40;;;;;;;8.95;8.15;;;12.80;99.90;;;;;;4924596;29;20043;-64
2021/05/15 07:51:20;;;;;;;6.78;6.20;;;12.70;99.90;;;;;;4923193;29;20087;-63
2021/05/15 07:53:50;;;;;;;6.55;5.93;;;12.70;99.90;;;;;;4924745;29;20039;-64
2021/05/15 07:56:16;;;;;;;4.82;4.43;;;12.80;99.90;;;;;;4918910;29;20141;-64
2021/05/15 07:58:42;;;;;;;5.55;5.05;;;12.90;99.90;;;;;;4923700;29;20059;-64
2021/05/15 08:01:08;;;;;;;5.53;5.03;;;13.10;99.90;;;;;;4931466;29;20067;-63
2021/05/15 08:03:34;;;;;;;6.40;5.80;;;13.10;99.90;;;;;;4922844;29;20463;-63
2021/05/15 08:06:00;;;;;;;6.97;6.20;;;13.00;99.90;;;;;;4917976;29;20501;-64
2021/05/15 08:08:25;;;;;;;7.75;6.90;;;13.10;99.90;;;;;;4924810;29;20054;-64
2021/05/15 08:10:51;;;;;;;6.97;6.28;;;13.10;99.90;;;;;;4923773;29;20122;-64
2021/05/15 08:13:17;;;;;;;6.65;5.97;;;13.20;99.90;;;;;;4923112;28;20105;-63
2021/05/15 08:15:44;;;;;;;7.10;6.40;;;13.20;99.90;;;;;;4927720;29;20416;-64
2021/05/15 08:18:10;;;;;;;7.30;6.60;;;13.10;99.90;;;;;;4922283;29;20032;-64
2021/05/15 08:20:36;;;;;;;7.30;6.60;;;13.20;99.90;;;;;;4923731;29;20032;-63
2021/05/15 08:23:02;;;;;;;8.43;6.70;;;13.40;99.90;;;;;;4922154;28;20405;-64
2021/05/15 08:25:27;;;;;;;8.90;7.70;;;13.40;99.90;;;;;;4921668;29;20040;-64
2021/05/15 08:27:57;;;;;;;8.77;7.88;;;13.50;99.90;;;;;;4932193;29;20046;-64
2021/05/15 08:30:23;;;;;;;9.73;8.10;;;13.40;99.90;;;;;;4924073;29;20414;-64
2021/05/15 08:32:51;;;;;;;8.82;7.93;;;13.50;99.90;;;;;;4928590;29;20329;-64
2021/05/15 08:35:17;;;;;;;8.35;7.07;;;13.40;99.90;;;;;;4929833;28;20559;-64
2021/05/15 08:37:43;;;;;;;8.52;6.53;;;13.40;99.90;;;;;;4927731;29;20040;-64
2021/05/15 08:40:10;;;;;;;10.48;8.48;;;13.60;99.90;;;;;;4928150;28;20040;-63
2021/05/15 08:42:37;;;;;;;7.90;6.68;;;13.70;99.90;;;;;;4927400;29;20123;-64
2021/05/15 08:45:05;;;;;;;9.23;8.32;;;13.90;99.90;;;;;;4932691;29;20436;-64
2021/05/15 08:47:31;;;;;;;10.20;8.57;;;14.10;99.90;;;;;;4933551;28;20517;-64
2021/05/15 08:50:02;;;;;;;7.57;6.65;;;14.30;99.90;;;;;;4926203;29;20706;-64
2021/05/15 08:52:27;;;;;;;;;;;14.50;99.90;;;;;;4921577;29;20040;-64
2021/05/15 08:54:54;;;;;;;8.43;6.85;;;14.70;99.90;;;;;;4930884;29;20434;-64
2021/05/15 08:57:19;;;;;;;8.18;7.13;;;14.80;99.90;;;;;;4925659;29;20131;-64
2021/05/15 08:59:49;;;;;;;7.00;6.25;;;14.90;99.90;;;;;;4928762;29;20135;-64
2021/05/15 09:02:15;;;;;;;7.88;6.85;;;15.10;99.90;;;;;;4927276;29;20130;-65
2021/05/15 09:05:04;;;;;;;7.55;6.85;;;15.10;99.90;;;;;;4921686;28;20071;-64
2021/05/15 09:07:31;;;;;;;7.90;6.95;;;15.20;99.90;;;;;;4927474;29;20047;-63
2021/05/15 09:09:58;;;;;;;6.32;5.65;;;15.40;99.90;;;;;;4927377;29;20044;-64
2021/05/15 09:12:26;;;;;;;6.15;5.55;;;15.60;99.90;;;;;;4924361;29;20039;-64
2021/05/15 09:15:07;;;;;;;7.05;6.35;;;15.90;99.90;;;;;;4928998;29;20047;-64
2021/05/15 09:17:48;;;;;;;6.53;5.88;;;16.00;99.90;;;;;;4924791;29;20040;-64
2021/05/15 09:20:30;;;;;;;8.23;7.32;;;15.90;99.90;;;;;;4920050;29;20063;-64
2021/05/15 09:22:57;;;;;;;11.57;8.63;;;15.10;99.90;;;;;;4926964;28;20645;-64
2021/05/15 09:25:24;;;;;;;8.02;7.22;;;14.20;99.90;;;;;;4926293;29;20122;-64
2021/05/15 09:27:51;;;;;;;8.90;7.30;;;13.50;99.90;;;;;;4926586;29;20520;-64
2021/05/15 09:30:19;;;;;;;7.68;6.60;;;13.00;99.90;;;;;;4929380;29;20055;-64
2021/05/15 09:32:46;;;;;;;8.52;6.07;;;12.70;99.90;;;;;;4928628;29;20398;-64
2021/05/15 09:35:26;;;;;;;9.00;6.63;;;12.50;99.90;;;;;;4925963;29;20057;-64
2021/05/15 09:37:53;;;;;;;6.80;6.15;;;12.40;99.90;;;;;;4928820;29;20044;-64
2021/05/15 09:40:27;;;;;;;9.20;6.88;;;12.50;99.90;;;;;;4921836;29;20099;-64
2021/05/15 09:43:07;;;;;;;7.72;5.65;;;12.70;99.90;;;;;;4926040;29;20048;-64
2021/05/15 09:45:37;;;;;;;6.32;4.93;;;13.00;99.90;;;;;;4926477;29;20048;-64
2021/05/15 09:48:09;;;;;;;7.85;6.00;;;13.00;99.90;;;;;;4925791;29;20039;-64
2021/05/15 09:50:38;;;;;;;10.45;5.85;;;13.30;99.90;;;;;;4919279;29;20082;-64
2021/05/15 09:53:12;;;;;;;4.50;2.95;;;13.60;99.90;;;;;;4930555;29;20059;-64
2021/05/15 09:55:49;;;;;;;2.15;2.05;;;14.10;99.90;;;;;;4924238;29;20062;-64
2021/05/15 09:58:16;;;;;;;2.17;1.98;;;14.80;99.90;;;;;;4931215;29;20648;-64
2021/05/15 10:00:51;;;;;;;2.20;2.00;;;15.20;99.90;;;;;;4932598;28;20043;-64
2021/05/15 10:03:26;;;;;;;4.18;3.05;;;15.30;99.90;;;;;;4924324;29;20052;-64
2021/05/15 10:06:15;;;;;;;2.85;2.65;;;15.40;99.90;;;;;;4925741;29;20075;-64
2021/05/15 10:08:43;;;;;;;4.65;2.35;;;15.40;99.90;;;;;;4928192;28;20066;-64
2021/05/15 10:11:11;;;;;;;2.80;2.10;;;15.40;99.90;;;;;;4922085;29;20048;-64
2021/05/15 10:13:40;;;;;;;2.10;2.00;;;15.50;99.90;;;;;;4935939;29;20047;-64
2021/05/15 10:16:07;;;;;;;5.75;2.03;;;15.50;99.90;;;;;;4934619;29;20067;-64
2021/05/15 10:18:38;;;;;;;2.72;1.98;;;15.70;99.90;;;;;;4922483;29;20457;-64
2021/05/15 10:21:05;;;;;;;1.83;1.73;;;15.80;99.90;;;;;;4910305;29;20190;-64
2021/05/15 10:23:41;;;;;;;3.00;2.75;;;16.10;99.90;;;;;;4924617;29;20059;-64
2021/05/15 10:26:24;;;;;;;2.13;1.98;;;16.00;99.90;;;;;;4926968;29;20485;-64
2021/05/15 10:29:03;;;;;;;2.15;1.85;;;15.90;99.90;;;;;;4924921;29;20513;-64
2021/05/15 10:31:44;;;;;;;1.85;1.75;;;16.00;99.90;;;;;;4927725;29;20044;-64
2021/05/15 10:34:12;;;;;;;2.00;1.85;;;16.00;99.90;;;;;;4924583;29;20561;-64
2021/05/15 10:36:47;;;;;;;4.47;2.45;;;16.10;99.90;;;;;;4926224;28;20035;-64
2021/05/15 10:39:31;;;;;;;2.67;2.22;;;16.00;99.90;;;;;;4926821;29;20059;-64
2021/05/15 10:42:02;;;;;;;2.00;1.90;;;16.20;99.90;;;;;;4924341;29;20051;-64
2021/05/15 10:44:44;;;;;;;2.63;2.38;;;16.40;99.90;;;;;;4921587;29;20043;-64
2021/05/15 10:47:11;;;;;;;3.47;2.45;;;16.50;99.90;;;;;;4929590;29;20406;-64
2021/05/15 10:49:38;;;;;;;2.13;1.92;;;16.60;99.90;;;;;;4926603;29;20075;-64
2021/05/15 10:52:16;;;;;;;2.17;2.08;;;16.70;99.90;;;;;;4931082;28;20039;-64
2021/05/15 10:54:51;;;;;;;2.00;1.85;;;16.60;99.90;;;;;;4928793;29;20058;-64
2021/05/15 10:57:23;;;;;;;2.38;2.17;;;16.50;99.90;;;;;;4924475;29;20517;-64
2021/05/15 10:59:57;;;;;;;2.58;2.38;;;16.40;99.90;;;;;;4926445;28;20043;-64
2021/05/15 11:02:32;;;;;;;2.80;2.33;;;16.20;99.90;;;;;;4930547;28;20110;-64
2021/05/15 11:05:03;;;;;;;7.82;2.22;;;16.20;99.90;;;;;;4923674;29;20697;-64
2021/05/15 11:07:35;;;;;;;2.20;2.05;;;16.40;99.90;;;;;;4930426;29;20087;-64
2021/05/15 11:10:11;;;;;;;3.13;1.80;;;16.60;99.90;;;;;;4928984;29;20061;-64
2021/05/15 11:12:45;;;;;;;2.03;1.88;;;16.70;99.90;;;;;;4920324;28;20047;-64
2021/05/15 11:15:14;;;;;;;1.70;1.60;;;16.70;99.90;;;;;;4924124;29;20099;-64
2021/05/15 11:17:42;;;;;;;1.83;1.70;;;16.60;99.90;;;;;;4926370;29;20070;-64
2021/05/15 11:20:14;;;;;;;1.60;1.50;;;16.80;99.90;;;;;;4919056;29;20082;-64
2021/05/15 11:22:48;;;;;;;1.65;1.55;;;17.00;99.90;;;;;;4921632;29;20052;-64
2021/05/15 11:25:26;;;;;;;1.58;1.48;;;17.30;99.90;;;;;;4924351;29;20418;-64
2021/05/15 11:27:58;;;;;;;1.73;1.63;;;17.00;99.90;;;;;;4925146;29;20063;-64
2021/05/15 11:30:30;;;;;;;2.83;1.70;;;16.70;99.90;;;;;;4921849;29;20098;-64
2021/05/15 11:33:05;;;;;;;1.60;1.50;;;16.70;99.90;;;;;;4930893;29;20047;-64
2021/05/15 11:35:36;;;;;;;1.75;1.65;;;16.90;99.90;;;;;;4924483;29;20071;-64
2021/05/15 11:38:12;;;;;;;1.55;1.42;;;17.00;99.90;;;;;;4933280;28;20044;-64
2021/05/15 11:40:40;;;;;;;2.38;2.17;;;17.10;99.90;;;;;;4929013;29;20043;-63
2021/05/15 11:43:08;;;;;;;1.73;1.63;;;17.00;99.90;;;;;;4923233;29;20040;-63
2021/05/15 11:45:35;;;;;;;3.65;2.20;;;17.10;99.90;;;;;;4907350;29;20056;-63
2021/05/15 11:48:20;;;;;;;1.80;1.70;;;16.90;99.90;;;;;;4927478;29;20062;-63
2021/05/15 11:51:06;;;;;;;2.60;1.95;;;16.70;99.90;;;;;;4920346;29;20890;-63
2021/05/15 11:53:39;;;;;;;3.97;1.80;;;16.40;99.90;;;;;;4923418;29;20052;-63
2021/05/15 11:56:14;;;;;;;2.55;1.95;;;16.30;99.90;;;;;;4929238;29;20040;-63
2021/05/15 11:58:54;;;;;;;2.33;2.13;;;16.30;99.90;;;;;;4925095;29;20070;-63
2021/05/15 12:01:22;;;;;;;;;;;16.40;99.90;;;;;;4922415;29;20150;-63
2021/05/15 12:03:50;;;;;;;4.15;2.35;;;16.40;99.90;;;;;;4932843;29;19922;-63
2021/05/15 12:06:18;;;;;;;5.72;2.38;;;16.20;99.90;;;;;;4924682;29;20054;-63
2021/05/15 12:08:46;;;;;;;1.90;1.80;;;16.20;99.90;;;;;;4929112;29;20181;-63
2021/05/15 12:11:13;;;;;;;2.45;2.25;;;16.50;99.90;;;;;;4935427;29;20525;-63
2021/05/15 12:13:51;;;;;;;2.13;1.83;;;16.50;99.90;;;;;;4928160;28;20055;-63
2021/05/15 12:16:22;;;;;;;2.13;1.92;;;16.70;99.90;;;;;;4930263;28;20044;-63
2021/05/15 12:18:49;;;;;;;;;;;16.90;99.90;;;;;;4925596;29;20074;-63
2021/05/15 12:21:22;;;;;;;1.85;1.58;;;17.20;99.90;;;;;;4940405;28;20012;-63
2021/05/15 12:23:49;;;;;;;2.47;1.77;;;17.20;99.90;;;;;;4930795;28;20044;-63
2021/05/15 12:26:17;;;;;;;1.77;1.67;;;17.30;99.90;;;;;;4926668;29;20058;-64
2021/05/15 12:28:46;;;;;;;1.48;1.38;;;17.40;99.90;;;;;;4921149;29;20512;-63
2021/05/15 12:31:28;;;;;;;2.42;1.48;;;17.50;99.90;;;;;;4941497;28;20115;-63
2021/05/15 12:33:57;;;;;;;2.92;1.75;;;17.80;99.90;;;;;;4921214;29;20523;-63
2021/05/15 12:36:32;;;;;;;4.88;2.50;;;17.80;99.90;;;;;;4928863;28;20039;-63
2021/05/15 12:39:00;;;;;;;1.98;1.88;;;18.10;99.90;;;;;;4924586;29;20043;-63
2021/05/15 12:41:29;;;;;;;1.75;1.60;;;18.20;99.90;;;;;;4929179;29;20540;-63
2021/05/15 12:44:09;;;;;;;2.70;1.48;;;18.20;99.90;;;;;;4922620;29;20059;-63
2021/05/15 12:46:42;;;;;;;4.22;1.00;;;18.10;99.90;;;;;;4931619;29;20059;-63
2021/05/15 12:49:18;;;;;;;1.88;1.20;;;18.30;99.90;;;;;;4926786;29;20047;-63
2021/05/15 12:51:51;;;;;;;1.10;1.05;;;18.50;99.90;;;;;;4929994;29;20056;-63
2021/05/15 12:54:24;;;;;;;1.80;1.65;;;18.60;99.50;;;;;;4926726;29;20391;-64
2021/05/15 12:56:59;;;;;;;2.00;1.30;;;18.60;99.60;;;;;;4928044;29;20121;-63
2021/05/15 12:59:40;;;;;;;1.70;1.50;;;18.80;99.50;;;;;;4925727;28;20709;-63